Time;durP1;ratioP1;P1;durP2;ratioP2;P2;SDS_P1;SDS_P2;PMS_P1;PMS_P2;Temp;Humidity;BMP_temperature;BMP_pressure;BME280_temperature;BME280_humidity;BME280_pressure;Samples;Min_cycle;Max_cycle;Signal;HPM_P1;HPM_P2
2022/09/18 00:00:21;;;;;;;4.20;1.77;;;;;;;12.50;93.47;98147.88;4160958;28;20993;-85
2022/09/18 00:02:24;;;;;;;5.03;1.60;;;;;;;12.46;93.58;98143.81;4144134;28;20652;-84
2022/09/18 00:04:27;;;;;;;6.17;2.40;;;;;;;12.45;93.78;98142.19;4154854;28;20646;-85
2022/09/18 00:06:32;;;;;;;4.33;1.63;;;;;;;12.44;94.77;98140.50;4156515;28;20674;-84
2022/09/18 00:08:37;;;;;;;6.50;1.70;;;;;;;12.45;93.60;98150.84;4142356;28;21266;-85
2022/09/18 00:10:41;;;;;;;6.23;1.93;;;;;;;12.46;94.78;98149.06;4149591;28;20658;-84
2022/09/18 00:12:44;;;;;;;4.73;2.00;;;;;;;12.46;93.82;98138.59;4140279;28;20647;-84
2022/09/18 00:14:47;;;;;;;4.43;1.70;;;;;;;12.45;94.67;98142.19;4158623;28;21481;-84
2022/09/18 00:16:51;;;;;;;4.60;1.57;;;;;;;12.44;94.04;98138.72;4152722;28;21119;-84
2022/09/18 00:18:54;;;;;;;2.50;1.37;;;;;;;12.44;93.96;98140.50;4153586;28;21398;-84
2022/09/18 00:21:03;;;;;;;5.27;2.03;;;;;;;12.41;92.56;98143.34;4143153;28;20642;-85
2022/09/18 00:23:06;;;;;;;4.73;1.93;;;;;;;12.34;93.89;98140.34;4159350;28;20642;-84
2022/09/18 00:25:09;;;;;;;4.33;1.87;;;;;;;12.34;93.52;98135.13;4146082;28;21232;-84
2022/09/18 00:27:12;;;;;;;4.80;1.80;;;;;;;12.34;93.95;98142.13;4154959;28;20658;-84
2022/09/18 00:29:16;;;;;;;8.83;1.83;;;;;;;12.35;94.23;98144.63;4161469;28;20645;-84
2022/09/18 00:31:24;;;;;;;6.43;1.70;;;;;;;12.37;93.68;98141.88;4145184;28;20653;-84
2022/09/18 00:33:28;;;;;;;4.40;3.20;;;;;;;12.36;94.55;98140.25;4140377;28;20653;-84
2022/09/18 00:35:31;;;;;;;4.70;1.80;;;;;;;12.36;93.41;98138.44;4144382;28;20773;-84
2022/09/18 00:37:34;;;;;;;4.13;2.13;;;;;;;12.37;92.77;98132.28;4150125;28;20652;-84
2022/09/18 00:39:37;;;;;;;3.30;1.60;;;;;;;12.38;93.57;98141.78;4138357;28;20651;-85
2022/09/18 00:41:42;;;;;;;5.30;1.60;;;;;;;12.40;92.87;98144.28;4170468;28;20649;-84
2022/09/18 00:43:46;;;;;;;4.40;1.80;;;;;;;12.39;93.48;98138.22;4159639;28;20745;-84
2022/09/18 00:45:53;;;;;;;2.83;1.70;;;;;;;12.38;93.83;98135.72;4149296;28;20638;-84
2022/09/18 00:47:57;;;;;;;5.63;1.80;;;;;;;12.36;93.97;98130.59;4140746;28;20663;-84
2022/09/18 00:50:07;;;;;;;3.70;1.53;;;;;;;12.36;92.93;98135.00;4157009;28;20740;-84
2022/09/18 00:52:11;;;;;;;3.70;1.70;;;;;;;12.39;93.45;98142.63;4145182;28;20657;-84
2022/09/18 00:54:18;;;;;;;6.20;1.93;;;;;;;12.34;93.37;98135.13;4141560;28;20646;-84
2022/09/18 00:56:21;;;;;;;3.57;1.50;;;;;;;12.32;93.18;98134.38;4139455;28;20642;-84
2022/09/18 00:58:24;;;;;;;4.50;2.03;;;;;;;12.32;93.15;98138.78;4143616;28;20653;-84
2022/09/18 01:00:29;;;;;;;5.73;1.50;;;;;;;12.32;93.32;98136.19;4137739;28;20992;-84
2022/09/18 01:02:33;;;;;;;3.70;1.53;;;;;;;12.31;93.29;98135.34;4140686;28;20806;-84
2022/09/18 01:04:37;;;;;;;3.43;1.50;;;;;;;12.30;92.25;98130.25;4140766;28;21044;-84
2022/09/18 01:06:46;;;;;;;2.50;1.70;;;;;;;12.28;92.78;98135.59;4149022;28;20669;-84
2022/09/18 01:09:14;;;;;;;4.30;1.73;;;;;;;12.28;93.20;98138.19;4147180;28;20646;-84
2022/09/18 01:11:36;;;;;;;5.73;1.40;;;;;;;12.27;93.43;98136.53;4158495;28;20688;-85
2022/09/18 01:13:45;;;;;;;3.67;1.73;;;;;;;12.25;93.64;98142.78;4138322;28;21299;-84
2022/09/18 01:15:52;;;;;;;4.43;1.60;;;;;;;12.23;92.36;98142.09;4158066;28;20734;-84
2022/09/18 01:18:02;;;;;;;3.13;1.57;;;;;;;12.24;94.35;98138.53;4144694;28;20646;-85
2022/09/18 01:20:20;;;;;;;6.17;1.67;;;;;;;12.23;93.99;98136.84;4160391;28;20657;-84
2022/09/18 01:22:33;;;;;;;5.13;2.10;;;;;;;12.22;93.74;98143.03;4138398;28;21038;-84
2022/09/18 01:24:46;;;;;;;4.27;1.87;;;;;;;12.23;94.53;98143.88;4140360;28;20741;-84
2022/09/18 01:26:54;;;;;;;3.10;1.80;;;;;;;12.23;94.00;98143.88;4144271;28;20649;-84
2022/09/18 01:29:00;;;;;;;6.00;1.77;;;;;;;12.23;94.32;98138.66;4132963;28;21224;-84
2022/09/18 01:31:06;;;;;;;7.07;1.80;;;;;;;12.20;94.80;98136.25;4140685;28;21018;-84
2022/09/18 01:33:15;;;;;;;4.70;1.80;;;;;;;12.20;93.40;98134.47;4151998;28;20665;-84
2022/09/18 01:35:23;;;;;;;4.77;2.30;;;;;;;12.16;93.37;98143.47;4136812;28;21224;-85
2022/09/18 01:37:46;;;;;;;6.10;1.70;;;;;;;12.13;94.01;98138.47;4158097;28;20747;-84
2022/09/18 01:39:53;;;;;;;4.33;2.00;;;;;;;12.14;95.09;98141.94;4136822;28;20765;-84
2022/09/18 01:41:59;;;;;;;3.73;2.50;;;;;;;12.13;93.42;98137.66;4158490;28;22064;-84
2022/09/18 01:44:09;;;;;;;4.03;1.90;;;;;;;12.11;94.37;98136.94;4158469;28;20685;-85
2022/09/18 01:46:15;;;;;;;3.63;1.70;;;;;;;12.08;95.32;98130.16;4142665;28;20679;-84
2022/09/18 01:48:23;;;;;;;6.63;2.17;;;;;;;12.07;95.88;98122.41;4142518;28;21107;-84
2022/09/18 01:50:28;;;;;;;3.33;1.73;;;;;;;12.05;94.48;98119.09;4153549;28;20748;-84
2022/09/18 01:52:36;;;;;;;4.73;1.83;;;;;;;12.03;96.28;98123.59;4155452;28;20652;-83
2022/09/18 01:54:42;;;;;;;4.80;1.80;;;;;;;12.06;95.27;98123.38;4157667;28;20657;-84
2022/09/18 01:56:47;;;;;;;5.23;1.93;;;;;;;12.08;96.26;98118.88;4138296;28;20650;-84
2022/09/18 01:58:53;;;;;;;5.47;2.00;;;;;;;12.06;94.05;98126.81;4157436;28;20660;-84
2022/09/18 02:01:05;;;;;;;4.53;2.07;;;;;;;12.09;95.30;98126.59;4137940;28;20692;-84
2022/09/18 02:03:11;;;;;;;4.10;1.93;;;;;;;12.12;95.33;98125.50;4134335;28;20693;-84
2022/09/18 02:05:21;;;;;;;6.43;2.07;;;;;;;12.12;95.42;98118.53;4151004;28;21056;-84
2022/09/18 02:07:30;;;;;;;5.87;2.00;;;;;;;12.11;96.04;98122.06;4156301;28;20726;-84
2022/09/18 02:09:35;;;;;;;5.57;1.73;;;;;;;12.11;93.89;98114.22;4137637;28;21989;-84
2022/09/18 02:11:41;;;;;;;4.23;1.90;;;;;;;12.09;94.06;98117.91;4147994;28;20657;-84
2022/09/18 02:13:48;;;;;;;4.50;1.70;;;;;;;12.08;93.92;98113.63;4135610;28;20668;-84
2022/09/18 02:15:57;;;;;;;5.00;2.17;;;;;;;12.09;94.39;98123.97;4141076;28;20646;-84
2022/09/18 02:18:05;;;;;;;3.70;1.87;;;;;;;12.12;93.49;98122.91;4146050;28;21208;-84
2022/09/18 02:20:18;;;;;;;3.73;1.70;;;;;;;12.12;93.10;98108.06;4157089;28;20653;-84
2022/09/18 02:22:23;;;;;;;3.90;1.97;;;;;;;12.11;94.42;98111.63;4156655;28;20812;-84
2022/09/18 02:24:35;;;;;;;5.07;1.80;;;;;;;12.10;93.51;98107.31;4136738;28;21003;-84
2022/09/18 02:26:39;;;;;;;3.10;2.07;;;;;;;12.11;93.85;98102.94;4152326;28;21325;-85
2022/09/18 02:28:44;;;;;;;5.13;2.10;;;;;;;12.10;93.37;98112.56;4150081;28;20666;-84
2022/09/18 02:30:48;;;;;;;4.73;1.90;;;;;;;12.11;93.09;98113.41;4170916;28;20698;-84
2022/09/18 02:32:54;;;;;;;3.10;1.80;;;;;;;12.12;94.03;98120.28;4143192;28;21076;-84
2022/09/18 02:34:59;;;;;;;3.00;1.90;;;;;;;12.12;91.87;98120.28;4137383;28;20766;-84
2022/09/18 02:37:17;;;;;;;3.40;1.63;;;;;;;12.11;91.99;98109.00;4157911;28;20804;-84
2022/09/18 02:39:30;;;;;;;8.03;2.03;;;;;;;12.12;92.69;98113.31;4152382;28;20681;-84
2022/09/18 02:41:39;;;;;;;9.30;2.10;;;;;;;12.12;92.23;98117.66;4156198;28;22556;-84
2022/09/18 02:43:54;;;;;;;4.03;1.87;;;;;;;12.08;93.24;98113.63;4151723;28;20683;-84
2022/09/18 02:46:05;;;;;;;5.17;2.10;;;;;;;12.08;92.47;98111.84;4158002;28;20676;-84
2022/09/18 02:48:21;;;;;;;3.43;1.87;;;;;;;12.10;93.02;98120.41;4140614;28;20693;-84
2022/09/18 02:50:31;;;;;;;4.63;2.13;;;;;;;12.11;94.16;98116.84;4152744;28;20641;-84
2022/09/18 02:52:42;;;;;;;5.73;2.07;;;;;;;12.08;93.92;98119.69;4156844;28;21268;-84
2022/09/18 02:54:48;;;;;;;4.13;2.00;;;;;;;12.07;92.76;98125.03;4163933;28;20687;-84
2022/09/18 02:56:53;;;;;;;5.27;2.03;;;;;;;12.10;94.16;98124.81;4151344;28;20662;-84
2022/09/18 02:59:02;;;;;;;3.80;2.53;;;;;;;12.10;93.79;98124.81;4140332;28;20659;-84
2022/09/18 03:01:06;;;;;;;2.47;1.90;;;;;;;12.11;94.23;98135.16;4137575;28;20677;-84
2022/09/18 03:03:13;;;;;;;5.20;2.03;;;;;;;12.09;94.48;98120.50;4140261;28;20749;-84
2022/09/18 03:05:22;;;;;;;4.60;2.30;;;;;;;12.10;92.91;98114.34;4140307;28;20753;-84
2022/09/18 03:07:31;;;;;;;4.13;2.20;;;;;;;12.09;95.16;98107.44;4168168;28;21108;-84
2022/09/18 03:09:34;;;;;;;7.80;2.40;;;;;;;12.05;94.30;98106.03;4139228;28;20757;-84
2022/09/18 03:11:38;;;;;;;2.90;2.30;;;;;;;12.05;94.02;98104.22;4151755;28;20652;-84
2022/09/18 03:13:41;;;;;;;5.53;2.30;;;;;;;12.02;94.92;98099.22;4147937;28;21066;-84
2022/09/18 03:15:44;;;;;;;4.77;2.60;;;;;;;11.99;95.66;98096.00;4150557;28;20649;-84
2022/09/18 03:17:47;;;;;;;4.23;2.40;;;;;;;11.98;95.36;98105.66;4136930;28;20663;-84
2022/09/18 03:19:50;;;;;;;4.60;2.60;;;;;;;11.98;95.25;98102.19;4147399;28;20646;-84
2022/09/18 03:21:53;;;;;;;5.23;2.47;;;;;;;11.99;93.60;98102.06;4138846;28;20697;-85
2022/09/18 03:23:59;;;;;;;6.23;2.40;;;;;;;12.00;95.42;98101.13;4137700;28;20755;-84
2022/09/18 03:26:05;;;;;;;3.90;2.60;;;;;;;12.00;95.58;98108.97;4151207;28;20675;-84
2022/09/18 03:28:09;;;;;;;6.13;2.43;;;;;;;11.99;94.78;98104.69;4137205;28;21063;-84
2022/09/18 03:30:15;;;;;;;4.43;2.17;;;;;;;12.00;94.75;98106.34;4150592;28;20701;-85
2022/09/18 03:32:18;;;;;;;9.43;2.77;;;;;;;12.00;96.54;98101.13;4140822;28;20684;-84
2022/09/18 03:34:24;;;;;;;3.53;2.40;;;;;;;12.02;94.83;98106.25;4172765;28;21045;-83
2022/09/18 03:36:27;;;;;;;5.17;2.40;;;;;;;11.99;96.69;98096.84;4157395;28;20642;-84
2022/09/18 03:38:31;;;;;;;3.10;2.10;;;;;;;11.99;95.85;98094.22;4136373;28;20682;-84
2022/09/18 03:40:36;;;;;;;4.47;2.00;;;;;;;12.01;96.23;98104.56;4137859;28;20647;-84
2022/09/18 03:42:43;;;;;;;3.57;2.43;;;;;;;12.01;96.86;98107.19;4141245;28;20672;-84
2022/09/18 03:44:46;;;;;;;4.13;2.40;;;;;;;11.97;95.82;98111.81;4158785;28;20748;-84
2022/09/18 03:46:56;;;;;;;3.80;2.10;;;;;;;11.98;96.57;98113.50;4135439;28;20639;-84
2022/09/18 03:48:59;;;;;;;3.63;2.27;;;;;;;12.01;97.54;98115.03;4137084;28;22453;-84
2022/09/18 03:51:05;;;;;;;7.67;2.53;;;;;;;12.01;96.11;98113.25;4143089;28;20643;-84
2022/09/18 03:53:08;;;;;;;4.47;2.37;;;;;;;12.04;96.82;98113.03;4136582;28;20710;-84
2022/09/18 03:55:36;;;;;;;6.57;2.73;;;;;;;12.00;96.28;98113.38;4128176;28;20752;-84
2022/09/18 03:57:59;;;;;;;4.13;2.17;;;;;;;12.03;95.82;98113.97;4149284;28;20822;-84
2022/09/18 04:00:21;;;;;;;2.90;2.40;;;;;;;12.06;97.33;98124.19;4153413;28;23554;-84
2022/09/18 04:02:30;;;;;;;3.00;2.10;;;;;;;12.05;95.87;98117.28;4153396;28;21526;-84
2022/09/18 04:04:52;;;;;;;6.93;2.40;;;;;;;11.98;96.79;98110.88;4156553;28;20752;-84
2022/09/18 04:07:14;;;;;;;4.20;2.50;;;;;;;11.96;95.56;98110.13;4152344;28;20649;-84
2022/09/18 04:09:17;;;;;;;3.30;2.17;;;;;;;11.96;95.75;98119.75;4165102;28;20657;-84
2022/09/18 04:11:26;;;;;;;3.97;2.60;;;;;;;11.89;96.44;98116.78;4136911;28;21110;-84
2022/09/18 04:13:29;;;;;;;5.50;2.10;;;;;;;11.91;97.72;98122.72;4136196;28;20673;-84
2022/09/18 04:15:38;;;;;;;4.13;2.30;;;;;;;11.93;96.09;98120.00;4136469;28;20657;-84
2022/09/18 04:17:41;;;;;;;5.67;2.40;;;;;;;11.93;97.19;98115.59;4153227;28;20748;-85
2022/09/18 04:19:44;;;;;;;6.93;2.60;;;;;;;11.94;97.46;98116.44;4133558;28;20687;-84
2022/09/18 04:21:53;;;;;;;4.07;2.30;;;;;;;11.95;96.67;98120.69;4140408;28;20682;-85
2022/09/18 04:23:58;;;;;;;3.17;2.40;;;;;;;11.95;96.48;98118.09;4149457;28;20661;-84
2022/09/18 04:26:07;;;;;;;5.30;2.60;;;;;;;11.85;96.86;98111.88;4131849;28;20704;-84
2022/09/18 04:28:16;;;;;;;6.20;2.40;;;;;;;11.80;97.84;98121.81;4141357;28;20750;-85
2022/09/18 04:30:23;;;;;;;4.30;2.60;;;;;;;11.83;97.21;98121.59;4148133;28;20796;-84
2022/09/18 04:32:26;;;;;;;2.97;2.30;;;;;;;11.84;97.87;98123.28;4141164;28;20801;-84
2022/09/18 04:34:29;;;;;;;2.97;2.57;;;;;;;11.87;98.83;98117.81;4137648;28;21359;-84
2022/09/18 04:36:32;;;;;;;3.43;2.50;;;;;;;11.87;98.91;98123.88;4138786;28;20650;-84
2022/09/18 04:38:36;;;;;;;5.50;3.20;;;;;;;11.89;97.45;98123.75;4148821;28;21012;-84
2022/09/18 04:40:40;;;;;;;5.43;2.70;;;;;;;11.84;98.09;98129.31;4140630;28;20670;-84
2022/09/18 04:42:43;;;;;;;3.40;2.40;;;;;;;11.86;98.43;98127.44;4171611;28;21073;-84
2022/09/18 04:44:48;;;;;;;4.20;2.83;;;;;;;11.89;98.70;98129.84;4143078;28;20654;-84
2022/09/18 04:46:51;;;;;;;3.10;2.23;;;;;;;11.91;97.89;98127.13;4134952;28;21237;-84
2022/09/18 04:48:54;;;;;;;2.87;2.30;;;;;;;11.91;98.28;98122.72;4168677;28;20996;-84
2022/09/18 04:51:00;;;;;;;3.30;2.37;;;;;;;11.82;97.30;98127.78;4139551;28;20656;-84
2022/09/18 04:53:03;;;;;;;4.13;2.80;;;;;;;11.81;98.36;98129.53;4137944;28;21210;-84
2022/09/18 04:55:08;;;;;;;3.93;2.40;;;;;;;11.82;97.63;98123.38;4137148;28;20638;-84
2022/09/18 04:57:12;;;;;;;5.00;2.60;;;;;;;11.78;97.44;98121.91;4141193;28;20724;-84
2022/09/18 04:59:20;;;;;;;7.37;3.00;;;;;;;11.79;99.34;98122.78;4142211;28;21001;-84
2022/09/18 05:01:25;;;;;;;4.00;2.30;;;;;;;11.83;98.96;98122.44;4141599;28;21267;-84
2022/09/18 05:03:28;;;;;;;4.40;2.60;;;;;;;11.84;98.75;98123.28;4139764;28;20661;-84
2022/09/18 05:05:31;;;;;;;5.13;2.50;;;;;;;11.88;96.69;98128.16;4142341;28;20642;-84
2022/09/18 05:07:35;;;;;;;5.67;2.30;;;;;;;11.89;98.76;98123.75;4172998;28;20660;-84
2022/09/18 05:09:38;;;;;;;5.90;2.30;;;;;;;11.89;97.99;98135.06;4168395;28;21485;-84
2022/09/18 05:11:42;;;;;;;3.93;2.37;;;;;;;11.87;98.61;98134.31;4156844;28;20668;-83
2022/09/18 05:13:48;;;;;;;5.33;2.57;;;;;;;11.87;97.76;98130.88;4167957;28;20686;-84
2022/09/18 05:15:54;;;;;;;3.30;2.20;;;;;;;11.88;97.96;98140.41;4136790;28;20645;-84
2022/09/18 05:18:00;;;;;;;3.03;2.40;;;;;;;11.92;97.80;98131.38;4154380;28;20648;-84
2022/09/18 05:20:05;;;;;;;2.87;2.20;;;;;;;11.94;97.75;98138.16;4140583;28;20634;-84
2022/09/18 05:22:13;;;;;;;3.03;2.10;;;;;;;11.94;97.40;98138.16;4133035;28;20657;-84
2022/09/18 05:24:21;;;;;;;3.30;2.40;;;;;;;11.94;97.11;98140.78;4139970;28;20704;-83
2022/09/18 05:26:27;;;;;;;4.20;2.40;;;;;;;11.97;97.28;98145.78;4143879;28;20701;-84
2022/09/18 05:28:31;;;;;;;6.00;3.13;;;;;;;11.94;98.66;98140.78;4156212;28;20704;-84
2022/09/18 05:30:35;;;;;;;4.57;2.60;;;;;;;11.95;98.77;98139.84;4116260;28;1094531;-83
2022/09/18 05:32:38;;;;;;;2.93;2.60;;;;;;;11.96;97.88;98141.50;4152028;28;20234;-84
2022/09/18 05:34:42;;;;;;;3.83;2.80;;;;;;;11.97;97.25;98145.78;4151062;28;20657;-84
2022/09/18 05:36:46;;;;;;;3.53;2.30;;;;;;;12.00;98.37;98144.75;4141381;28;20670;-84
2022/09/18 05:38:50;;;;;;;5.20;2.60;;;;;;;12.01;97.35;98143.78;4140708;28;20647;-84
2022/09/18 05:40:53;;;;;;;4.33;2.43;;;;;;;12.00;98.10;98144.75;4155688;28;20660;-84
2022/09/18 05:42:58;;;;;;;4.20;2.67;;;;;;;11.99;98.77;98149.13;4156868;28;20661;-84
2022/09/18 05:45:01;;;;;;;7.33;2.50;;;;;;;12.00;98.12;98142.13;4142572;28;20742;-84
2022/09/18 05:47:05;;;;;;;6.27;2.87;;;;;;;12.02;97.79;98150.69;4140183;28;20760;-84
2022/09/18 05:49:08;;;;;;;3.43;2.70;;;;;;;12.04;97.22;98157.47;4150917;28;20656;-84
2022/09/18 05:51:13;;;;;;;4.67;2.77;;;;;;;12.04;97.31;98152.25;4152006;28;20704;-84
2022/09/18 05:53:18;;;;;;;4.97;2.80;;;;;;;12.01;98.41;98151.63;4133882;28;21305;-85
2022/09/18 05:55:41;;;;;;;8.30;3.03;;;;;;;11.95;98.28;98145.06;4156093;28;20749;-84
2022/09/18 05:57:44;;;;;;;3.83;2.90;;;;;;;11.94;96.90;98156.47;4140800;28;20789;-84
2022/09/18 05:59:47;;;;;;;3.50;3.20;;;;;;;11.93;98.65;98154.78;4156340;28;21825;-83
2022/09/18 06:01:50;;;;;;;4.47;3.03;;;;;;;11.96;97.50;98159.78;4140901;28;20691;-84
2022/09/18 06:04:01;;;;;;;4.13;3.23;;;;;;;11.99;98.10;98161.34;4140905;28;21024;-84
2022/09/18 06:06:14;;;;;;;4.27;3.37;;;;;;;11.98;97.46;98155.31;4138263;28;20662;-84
2022/09/18 06:08:17;;;;;;;3.47;3.17;;;;;;;11.92;96.82;98152.28;4164979;28;20650;-84
2022/09/18 06:10:21;;;;;;;3.63;3.10;;;;;;;11.93;98.53;98161.81;4135117;28;20663;-84
2022/09/18 06:12:24;;;;;;;4.80;3.10;;;;;;;11.92;98.18;98160.13;4139053;28;20661;-84
2022/09/18 06:14:27;;;;;;;3.57;3.27;;;;;;;11.92;97.58;98160.97;4137940;28;20646;-84
2022/09/18 06:16:32;;;;;;;5.27;3.60;;;;;;;11.94;98.13;98164.31;4138374;28;20761;-84
2022/09/18 06:18:38;;;;;;;7.07;3.97;;;;;;;11.96;99.37;98162.41;4146639;28;20740;-83
2022/09/18 06:20:42;;;;;;;5.30;3.47;;;;;;;11.99;99.01;98162.19;4145835;28;20635;-84
2022/09/18 06:22:46;;;;;;;7.00;3.60;;;;;;;12.00;99.03;98168.28;4136845;28;20697;-84
2022/09/18 06:24:54;;;;;;;6.80;3.80;;;;;;;12.01;98.87;98165.53;4144494;28;20646;-84
2022/09/18 06:27:05;;;;;;;4.30;3.60;;;;;;;12.01;97.46;98176.00;4144356;28;20679;-84
2022/09/18 06:29:08;;;;;;;5.10;3.83;;;;;;;12.04;99.26;98174.91;4158313;28;20636;-84
2022/09/18 06:31:23;;;;;;;9.80;3.37;;;;;;;12.05;98.55;98172.19;4142506;28;20666;-84
2022/09/18 06:33:40;;;;;;;8.50;3.60;;;;;;;12.07;97.64;98169.47;4143303;28;21014;-84
2022/09/18 06:35:47;;;;;;;5.00;3.50;;;;;;;12.03;98.56;98161.03;4142129;28;20802;-84
2022/09/18 06:38:02;;;;;;;5.43;3.50;;;;;;;12.02;96.73;98161.13;4154471;28;20696;-84
2022/09/18 06:40:20;;;;;;;4.93;3.60;;;;;;;11.96;98.10;98156.34;4140224;28;20727;-85
2022/09/18 06:42:42;;;;;;;5.60;3.77;;;;;;;11.95;97.79;98160.75;4152829;28;21152;-83
2022/09/18 06:45:05;;;;;;;3.87;3.53;;;;;;;11.92;97.91;98168.81;4154169;28;20752;-84
2022/09/18 06:47:09;;;;;;;6.17;3.83;;;;;;;11.92;97.10;98166.22;4168524;28;20636;-84
2022/09/18 06:49:16;;;;;;;5.60;3.83;;;;;;;11.94;97.90;98166.09;4139728;28;20655;-84
2022/09/18 06:51:20;;;;;;;3.97;3.40;;;;;;;11.97;98.11;98165.88;4159937;28;21066;-84
2022/09/18 06:53:38;;;;;;;7.80;4.43;;;;;;;12.01;97.08;98170.78;4156357;28;20657;-85
2022/09/18 06:55:41;;;;;;;5.57;3.70;;;;;;;11.99;97.09;98172.63;4139234;28;20681;-84
2022/09/18 06:57:53;;;;;;;3.97;3.57;;;;;;;12.01;97.41;98173.38;4152440;28;20654;-84
2022/09/18 06:59:56;;;;;;;4.03;3.47;;;;;;;12.06;97.32;98175.66;4141831;28;20673;-84
2022/09/18 07:01:59;;;;;;;4.50;3.80;;;;;;;12.09;97.53;98178.03;4161645;28;20670;-84
2022/09/18 07:04:32;;;;;;;4.30;3.60;;;;;;;12.02;98.21;98169.81;4144744;28;20649;-84
2022/09/18 07:06:35;;;;;;;4.13;3.73;;;;;;;12.04;98.11;98174.91;4159194;28;20772;-84
2022/09/18 07:08:40;;;;;;;5.43;3.53;;;;;;;12.10;98.72;98174.47;4151078;28;20715;-84
2022/09/18 07:10:50;;;;;;;6.70;4.00;;;;;;;12.12;96.97;98183.88;4152652;28;21275;-84
2022/09/18 07:12:56;;;;;;;6.40;4.50;;;;;;;12.12;97.61;98183.88;4157221;28;20657;-83
2022/09/18 07:14:59;;;;;;;4.30;3.27;;;;;;;12.16;97.79;98176.66;4153606;28;21019;-84
2022/09/18 07:17:02;;;;;;;4.53;3.67;;;;;;;12.18;97.96;98175.59;4140020;28;20654;-83
2022/09/18 07:19:06;;;;;;;4.43;4.00;;;;;;;12.21;98.02;98183.22;4145586;28;21495;-84
2022/09/18 07:21:10;;;;;;;6.43;3.57;;;;;;;12.18;97.14;98178.22;4157417;28;20646;-84
2022/09/18 07:23:15;;;;;;;4.93;3.73;;;;;;;12.16;96.69;98180.09;4152385;28;21037;-83
2022/09/18 07:25:25;;;;;;;5.50;3.80;;;;;;;12.19;97.40;98182.47;4151942;28;20657;-84
2022/09/18 07:27:28;;;;;;;4.30;3.90;;;;;;;12.24;97.20;98180.38;4151843;28;20720;-84
2022/09/18 07:29:34;;;;;;;4.00;3.50;;;;;;;12.20;95.66;98178.09;4158342;28;20719;-84
2022/09/18 07:31:38;;;;;;;5.80;3.70;;;;;;;12.20;97.32;98186.75;4137562;28;20665;-84
2022/09/18 07:33:43;;;;;;;4.93;4.10;;;;;;;12.23;96.47;98189.16;4138669;28;20643;-84
2022/09/18 07:35:52;;;;;;;4.60;3.73;;;;;;;12.27;96.29;98193.22;4153357;28;20648;-83
2022/09/18 07:37:58;;;;;;;3.60;3.20;;;;;;;12.26;96.62;98186.31;4140816;28;20658;-84
2022/09/18 07:40:15;;;;;;;5.97;3.70;;;;;;;12.27;97.08;98193.22;4137572;28;20660;-84
2022/09/18 07:42:39;;;;;;;5.50;3.60;;;;;;;12.24;95.74;98188.22;4158947;28;20756;-83
2022/09/18 07:44:42;;;;;;;8.50;4.10;;;;;;;12.25;96.46;98195.97;4160614;28;20653;-84
2022/09/18 07:46:46;;;;;;;3.90;3.03;;;;;;;12.30;96.13;98196.44;4137618;28;21017;-84
2022/09/18 07:48:49;;;;;;;5.70;3.20;;;;;;;12.33;96.15;98205.84;4155452;28;20661;-85
2022/09/18 07:51:00;;;;;;;7.37;3.53;;;;;;;12.38;96.56;98201.13;4139497;28;20785;-84
2022/09/18 07:53:04;;;;;;;6.20;3.60;;;;;;;12.38;95.74;98201.94;4154449;28;20661;-84
2022/09/18 07:55:12;;;;;;;5.93;3.67;;;;;;;12.33;95.13;98198.84;4149055;28;20645;-82
2022/09/18 07:57:16;;;;;;;5.23;3.30;;;;;;;12.33;94.50;98203.25;4135821;28;20647;-85
2022/09/18 07:59:35;;;;;;;5.00;4.23;;;;;;;12.34;95.04;98200.50;4136828;28;20707;-86
2022/09/18 08:01:39;;;;;;;4.10;3.27;;;;;;;12.35;95.78;98194.31;4142834;28;20718;-85
2022/09/18 08:03:42;;;;;;;4.30;2.37;;;;;;;12.34;94.68;98199.66;4154136;28;20715;-84
2022/09/18 08:05:45;;;;;;;5.90;3.20;;;;;;;12.37;94.55;98204.66;4152432;28;21287;-88
2022/09/18 08:07:49;;;;;;;5.03;2.93;;;;;;;12.39;94.57;98200.19;4139736;28;20647;-83
2022/09/18 08:10:11;;;;;;;3.17;2.87;;;;;;;12.45;94.28;98207.56;4164696;28;20660;-83
2022/09/18 08:12:38;;;;;;;5.53;3.40;;;;;;;12.46;94.98;98209.22;4140485;28;20773;-84
2022/09/18 08:15:04;;;;;;;7.23;3.60;;;;;;;12.46;93.74;98209.22;4121399;28;20680;-84
2022/09/18 08:17:17;;;;;;;4.00;2.43;;;;;;;12.49;95.03;98207.19;4140944;28;21287;-84
2022/09/18 08:19:39;;;;;;;7.70;3.00;;;;;;;12.53;94.23;98210.44;4166886;28;21946;-85
2022/09/18 08:21:57;;;;;;;3.10;2.50;;;;;;;12.54;94.16;98206.84;4142605;28;20753;-84
2022/09/18 08:24:00;;;;;;;5.13;2.50;;;;;;;12.46;92.84;98210.06;4152247;28;20661;-85
2022/09/18 08:26:04;;;;;;;3.50;2.80;;;;;;;12.45;93.03;98207.56;4153859;28;21453;-84
2022/09/18 08:28:08;;;;;;;3.57;2.70;;;;;;;12.43;94.47;98209.44;4132614;28;20678;-84
2022/09/18 08:30:19;;;;;;;3.33;2.67;;;;;;;12.39;94.02;98206.22;4156339;28;20673;-86
2022/09/18 08:32:27;;;;;;;9.03;3.10;;;;;;;12.39;94.59;98205.41;4146915;28;20670;-83
2022/09/18 08:34:30;;;;;;;6.60;2.87;;;;;;;12.40;94.01;98201.81;4136317;28;21065;-84
2022/09/18 08:36:34;;;;;;;7.50;2.77;;;;;;;12.39;94.07;98202.78;4134590;28;20772;-83
2022/09/18 08:38:45;;;;;;;6.47;2.73;;;;;;;12.41;95.26;98206.13;4140585;28;20677;-83
2022/09/18 08:41:28;;;;;;;3.83;2.60;;;;;;;12.41;94.96;98208.72;4137201;28;20650;-83
2022/09/18 08:43:44;;;;;;;3.50;2.70;;;;;;;12.42;93.91;98203.38;4135523;28;20758;-84
2022/09/18 08:45:54;;;;;;;5.00;3.10;;;;;;;12.45;94.54;98208.41;4154677;28;20760;-83
2022/09/18 08:48:00;;;;;;;3.90;2.30;;;;;;;12.51;94.10;98212.31;4137906;28;20680;-85
2022/09/18 08:50:14;;;;;;;4.43;2.83;;;;;;;12.55;93.65;98211.97;4132627;28;21247;-82
2022/09/18 08:52:19;;;;;;;4.03;2.80;;;;;;;12.59;93.96;98210.00;4150852;28;20724;-83
2022/09/18 08:54:39;;;;;;;4.20;2.40;;;;;;;12.66;92.55;98211.19;4172344;28;20691;-84
2022/09/18 08:56:51;;;;;;;8.40;2.80;;;;;;;12.68;92.91;98205.72;4145213;28;20649;-84
2022/09/18 08:59:12;;;;;;;3.90;2.50;;;;;;;12.72;92.52;98207.16;4137079;28;20657;-84
2022/09/18 09:01:18;;;;;;;4.60;3.30;;;;;;;12.80;93.21;98204.81;4141566;28;20649;-85
2022/09/18 09:03:42;;;;;;;3.57;2.60;;;;;;;12.85;92.71;98207.09;4152773;28;21255;-85
2022/09/18 09:05:48;;;;;;;6.03;2.53;;;;;;;12.88;90.83;98207.69;4159601;28;20643;-84
2022/09/18 09:08:08;;;;;;;3.97;2.37;;;;;;;12.93;91.73;98204.72;4141387;28;20749;-86
2022/09/18 09:10:22;;;;;;;3.80;3.00;;;;;;;13.02;91.31;98212.75;4146586;28;20634;-86
2022/09/18 09:12:33;;;;;;;10.07;6.00;;;;;;;13.14;91.25;98216.19;4144097;28;20649;-86
2022/09/18 09:14:44;;;;;;;3.57;2.20;;;;;;;13.22;91.59;98215.50;4139252;28;20650;-86
2022/09/18 09:17:05;;;;;;;4.57;2.70;;;;;;;13.28;90.25;98214.22;4155518;28;20656;-86
2022/09/18 09:19:21;;;;;;;4.20;2.40;;;;;;;13.29;90.18;98221.09;4139093;28;20662;-86
2022/09/18 09:21:43;;;;;;;4.50;2.80;;;;;;;13.28;90.17;98222.06;4142271;28;20647;-86
2022/09/18 09:23:57;;;;;;;4.87;2.63;;;;;;;13.30;89.87;98220.16;4139207;28;20681;-87
2022/09/18 09:26:31;;;;;;;6.43;2.90;;;;;;;13.31;90.29;98221.81;4136369;28;21109;-86
2022/09/18 09:28:59;;;;;;;4.70;2.90;;;;;;;13.32;89.37;98215.63;4141958;28;20768;-86
2022/09/18 09:31:35;;;;;;;4.90;3.57;;;;;;;13.39;90.40;98222.88;4151677;28;21667;-87
2022/09/18 09:33:58;;;;;;;3.50;2.63;;;;;;;13.43;89.21;98216.47;4131426;28;20635;-86
2022/09/18 09:36:32;;;;;;;4.27;2.90;;;;;;;13.50;89.48;98220.28;4142856;28;21266;-85
2022/09/18 09:38:45;;;;;;;6.23;2.70;;;;;;;13.60;88.70;98217.78;4164410;28;20746;-85
2022/09/18 09:40:50;;;;;;;3.33;2.57;;;;;;;13.62;88.87;98218.47;4131905;28;20706;-85
2022/09/18 09:42:57;;;;;;;6.33;3.23;;;;;;;13.63;87.92;98207.88;4134439;28;20756;-86
2022/09/18 09:45:03;;;;;;;5.97;2.80;;;;;;;13.64;88.17;98215.63;4134805;28;20670;-85
2022/09/18 09:47:16;;;;;;;3.73;2.67;;;;;;;13.60;86.69;98212.53;4129269;28;20663;-85
2022/09/18 09:49:24;;;;;;;4.00;2.57;;;;;;;13.59;86.87;98208.22;4145317;28;20680;-85
2022/09/18 09:51:31;;;;;;;4.03;2.80;;;;;;;13.53;86.80;98227.06;4136612;28;20661;-85
2022/09/18 09:53:35;;;;;;;3.53;2.73;;;;;;;13.49;86.77;98210.75;4131777;28;20666;-85
2022/09/18 09:55:44;;;;;;;3.50;2.50;;;;;;;13.55;87.73;98212.06;4136469;28;20750;-85
2022/09/18 09:57:52;;;;;;;4.90;2.77;;;;;;;13.60;88.01;98208.13;4142942;28;20645;-85
2022/09/18 10:00:05;;;;;;;5.83;2.87;;;;;;;13.65;86.99;98211.19;4133450;28;20714;-86
2022/09/18 10:02:29;;;;;;;3.30;2.80;;;;;;;13.68;86.93;98211.81;4155096;28;20743;-86
2022/09/18 10:04:39;;;;;;;5.37;2.80;;;;;;;13.71;87.29;98215.97;4138824;28;20750;-85